sensor_id;sensor_type;location;lat;lon;timestamp;pressure;altitude;pressure_sealevel;temperature;humidity
10476;BME280;26166;48.264;11.436;2022-11-15T00:00:26;96136.09;;;12.71;48.86
10476;BME280;26166;48.264;11.436;2022-11-15T00:03:26;96136.25;;;12.69;48.83
10476;BME280;26166;48.264;11.436;2022-11-15T00:06:27;96137.28;;;12.68;48.99
10476;BME280;26166;48.264;11.436;2022-11-15T00:09:27;96141.53;;;12.69;48.80
10476;BME280;26166;48.264;11.436;2022-11-15T00:12:28;96127.53;;;12.69;48.68
10476;BME280;26166;48.264;11.436;2022-11-15T00:15:28;96130.38;;;12.67;48.77
10476;BME280;26166;48.264;11.436;2022-11-15T00:18:29;96130.38;;;12.67;48.49
10476;BME280;26166;48.264;11.436;2022-11-15T00:21:29;96127.75;;;12.67;48.55
10476;BME280;26166;48.264;11.436;2022-11-15T00:24:30;96121.81;;;12.65;48.26
10476;BME280;26166;48.264;11.436;2022-11-15T00:27:30;96127.91;;;12.66;48.47
10476;BME280;26166;48.264;11.436;2022-11-15T00:30:30;96112.28;;;12.64;48.55
10476;BME280;26166;48.264;11.436;2022-11-15T00:33:30;96120.00;;;12.66;48.31
10476;BME280;26166;48.264;11.436;2022-11-15T00:36:32;96110.47;;;12.65;48.25
10476;BME280;26166;48.264;11.436;2022-11-15T00:39:33;96111.28;;;12.65;47.99
10476;BME280;26166;48.264;11.436;2022-11-15T00:42:33;96100.94;;;12.63;48.11
10476;BME280;26166;48.264;11.436;2022-11-15T00:45:33;96109.84;;;12.62;48.04
10476;BME280;26166;48.264;11.436;2022-11-15T00:48:33;96109.66;;;12.64;48.21
10476;BME280;26166;48.264;11.436;2022-11-15T00:51:34;96102.75;;;12.63;48.03
10476;BME280;26166;48.264;11.436;2022-11-15T00:54:34;96101.75;;;12.64;48.11
10476;BME280;26166;48.264;11.436;2022-11-15T00:57:34;96096.47;;;12.64;47.98
10476;BME280;26166;48.264;11.436;2022-11-15T01:00:34;96091.19;;;12.64;47.77
10476;BME280;26166;48.264;11.436;2022-11-15T01:03:35;96094.84;;;12.63;48.22
10476;BME280;26166;48.264;11.436;2022-11-15T01:06:35;96089.56;;;12.63;47.95
10476;BME280;26166;48.264;11.436;2022-11-15T01:09:36;96086.94;;;12.63;47.60
10476;BME280;26166;48.264;11.436;2022-11-15T01:12:36;96083.50;;;12.62;47.34
10476;BME280;26166;48.264;11.436;2022-11-15T01:15:39;96079.03;;;12.63;47.63
10476;BME280;26166;48.264;11.436;2022-11-15T01:18:39;96079.19;;;12.61;47.25
10476;BME280;26166;48.264;11.436;2022-11-15T01:21:39;96084.66;;;12.60;47.53
10476;BME280;26166;48.264;11.436;2022-11-15T01:24:40;96075.31;;;12.57;47.84
10476;BME280;26166;48.264;11.436;2022-11-15T01:27:40;96079.59;;;12.58;47.86
10476;BME280;26166;48.264;11.436;2022-11-15T01:30:40;96075.31;;;12.57;47.75
10476;BME280;26166;48.264;11.436;2022-11-15T01:33:41;96079.59;;;12.58;47.91
10476;BME280;26166;48.264;11.436;2022-11-15T01:36:41;96082.22;;;12.58;47.55
10476;BME280;26166;48.264;11.436;2022-11-15T01:39:41;96079.38;;;12.60;47.69
10476;BME280;26166;48.264;11.436;2022-11-15T01:42:42;96067.84;;;12.61;47.40
10476;BME280;26166;48.264;11.436;2022-11-15T01:45:42;96062.78;;;12.59;47.53
10476;BME280;26166;48.264;11.436;2022-11-15T01:48:43;96058.31;;;12.60;47.25
10476;BME280;26166;48.264;11.436;2022-11-15T01:51:43;96056.50;;;12.60;47.48
10476;BME280;26166;48.264;11.436;2022-11-15T01:54:44;96053.03;;;12.60;47.14
10476;BME280;26166;48.264;11.436;2022-11-15T01:57:45;96044.31;;;12.59;47.24
10476;BME280;26166;48.264;11.436;2022-11-15T02:00:46;96052.41;;;12.58;47.39
10476;BME280;26166;48.264;11.436;2022-11-15T02:04:02;96048.13;;;12.57;47.16
10476;BME280;26166;48.264;11.436;2022-11-15T02:07:04;96055.06;;;12.58;47.01
10476;BME280;26166;48.264;11.436;2022-11-15T02:10:09;96048.97;;;12.57;47.42
10476;BME280;26166;48.264;11.436;2022-11-15T02:13:09;96047.16;;;12.58;46.95
10476;BME280;26166;48.264;11.436;2022-11-15T02:16:15;96039.25;;;12.58;47.22
10476;BME280;26166;48.264;11.436;2022-11-15T02:22:46;96026.88;;;12.58;46.92
10476;BME280;26166;48.264;11.436;2022-11-15T02:31:54;96017.53;;;12.56;46.46
10476;BME280;26166;48.264;11.436;2022-11-15T02:41:31;96001.44;;;12.51;46.58
10476;BME280;26166;48.264;11.436;2022-11-15T02:44:35;95995.56;;;12.49;46.47
10476;BME280;26166;48.264;11.436;2022-11-15T02:47:41;96000.84;;;12.49;46.55
10476;BME280;26166;48.264;11.436;2022-11-15T02:50:42;96009.72;;;12.48;47.04
10476;BME280;26166;48.264;11.436;2022-11-15T02:53:43;96004.44;;;12.48;47.01
10476;BME280;26166;48.264;11.436;2022-11-15T02:56:44;96010.38;;;12.50;46.72
10476;BME280;26166;48.264;11.436;2022-11-15T03:12:36;96000.69;;;12.57;46.43
10476;BME280;26166;48.264;11.436;2022-11-15T03:15:51;95992.00;;;12.56;46.66
10476;BME280;26166;48.264;11.436;2022-11-15T03:19:00;95990.16;;;12.57;46.40
10476;BME280;26166;48.264;11.436;2022-11-15T03:22:03;95982.91;;;12.59;46.50
10476;BME280;26166;48.264;11.436;2022-11-15T03:25:07;95986.34;;;12.59;46.49
10476;BME280;26166;48.264;11.436;2022-11-15T03:28:08;95978.44;;;12.59;46.23
10476;BME280;26166;48.264;11.436;2022-11-15T03:31:10;95980.88;;;12.61;46.26
10476;BME280;26166;48.264;11.436;2022-11-15T03:34:35;95970.19;;;12.62;45.78
10476;BME280;26166;48.264;11.436;2022-11-15T03:37:40;95967.53;;;12.62;46.07
10476;BME280;26166;48.264;11.436;2022-11-15T03:40:47;95972.81;;;12.62;45.91
10476;BME280;26166;48.264;11.436;2022-11-15T03:47:53;95970.00;;;12.64;45.73
10476;BME280;26166;48.264;11.436;2022-11-15T03:50:22;95972.44;;;12.66;45.66
10476;BME280;26166;48.264;11.436;2022-11-15T03:53:22;95966.34;;;12.65;45.59
10476;BME280;26166;48.264;11.436;2022-11-15T03:56:23;95957.47;;;12.66;45.30
10476;BME280;26166;48.264;11.436;2022-11-15T03:59:23;95959.09;;;12.67;45.45
10476;BME280;26166;48.264;11.436;2022-11-15T04:02:23;95957.47;;;12.66;45.46
10476;BME280;26166;48.264;11.436;2022-11-15T04:05:23;95939.19;;;12.65;45.30
10476;BME280;26166;48.264;11.436;2022-11-15T04:08:24;95940.00;;;12.65;44.99
10476;BME280;26166;48.264;11.436;2022-11-15T04:11:24;95941.66;;;12.66;45.21
10476;BME280;26166;48.264;11.436;2022-11-15T04:14:24;95940.00;;;12.65;45.18
10476;BME280;26166;48.264;11.436;2022-11-15T04:17:24;95940.00;;;12.65;45.23
10476;BME280;26166;48.264;11.436;2022-11-15T04:20:25;95937.34;;;12.65;45.27
10476;BME280;26166;48.264;11.436;2022-11-15T04:23:44;95946.91;;;12.66;45.01
10476;BME280;26166;48.264;11.436;2022-11-15T04:27:03;95935.16;;;12.69;44.61
10476;BME280;26166;48.264;11.436;2022-11-15T04:30:04;95944.91;;;12.68;44.66
10476;BME280;26166;48.264;11.436;2022-11-15T04:33:04;95942.13;;;12.55;44.83
10476;BME280;26166;48.264;11.436;2022-11-15T04:36:04;95944.25;;;12.45;44.79
10476;BME280;26166;48.264;11.436;2022-11-15T04:39:23;95941.78;;;12.43;45.14
10476;BME280;26166;48.264;11.436;2022-11-15T04:42:24;95940.59;;;12.46;45.08
10476;BME280;26166;48.264;11.436;2022-11-15T04:45:24;95936.59;;;12.50;44.90
10476;BME280;26166;48.264;11.436;2022-11-15T04:48:24;95928.94;;;12.55;44.71
10476;BME280;26166;48.264;11.436;2022-11-15T04:51:24;95926.94;;;12.57;44.80
10476;BME280;26166;48.264;11.436;2022-11-15T04:54:25;95931.03;;;12.59;44.27
10476;BME280;26166;48.264;11.436;2022-11-15T04:57:25;95925.38;;;12.62;44.33
10476;BME280;26166;48.264;11.436;2022-11-15T05:00:25;95914.44;;;12.66;44.23
10476;BME280;26166;48.264;11.436;2022-11-15T05:03:25;95915.28;;;12.66;44.23
10476;BME280;26166;48.264;11.436;2022-11-15T05:06:45;95909.19;;;12.66;44.58
10476;BME280;26166;48.264;11.436;2022-11-15T05:09:46;95905.50;;;12.60;44.41
10476;BME280;26166;48.264;11.436;2022-11-15T05:12:46;95901.22;;;12.37;44.19
10476;BME280;26166;48.264;11.436;2022-11-15T05:15:46;95904.50;;;12.25;44.71
10476;BME280;26166;48.264;11.436;2022-11-15T05:18:48;95900.00;;;12.19;44.87
10476;BME280;26166;48.264;11.436;2022-11-15T05:21:50;95900.81;;;12.19;45.24
10476;BME280;26166;48.264;11.436;2022-11-15T05:24:50;95902.22;;;12.22;44.81
10476;BME280;26166;48.264;11.436;2022-11-15T05:27:50;95899.25;;;12.25;44.99
10476;BME280;26166;48.264;11.436;2022-11-15T05:30:50;95901.72;;;12.26;44.82
10476;BME280;26166;48.264;11.436;2022-11-15T05:33:51;95890.78;;;12.29;44.45
10476;BME280;26166;48.264;11.436;2022-11-15T05:36:51;95886.97;;;12.32;44.41
10476;BME280;26166;48.264;11.436;2022-11-15T05:39:52;95887.78;;;12.32;44.71
10476;BME280;26166;48.264;11.436;2022-11-15T05:42:52;95892.03;;;12.33;44.31
10476;BME280;26166;48.264;11.436;2022-11-15T05:45:53;95883.31;;;12.33;44.52
10476;BME280;26166;48.264;11.436;2022-11-15T05:48:53;95877.25;;;12.32;44.58
10476;BME280;26166;48.264;11.436;2022-11-15T05:51:54;95877.25;;;12.32;44.27
10476;BME280;26166;48.264;11.436;2022-11-15T05:54:55;95871.34;;;12.30;44.52
10476;BME280;26166;48.264;11.436;2022-11-15T05:57:56;95874.16;;;12.29;44.23
10476;BME280;26166;48.264;11.436;2022-11-15T06:00:56;95870.72;;;12.28;44.28
10476;BME280;26166;48.264;11.436;2022-11-15T06:03:56;95867.88;;;12.30;44.26
10476;BME280;26166;48.264;11.436;2022-11-15T06:06:58;95867.06;;;12.29;44.18
10476;BME280;26166;48.264;11.436;2022-11-15T06:09:58;95863.44;;;12.30;44.36
10476;BME280;26166;48.264;11.436;2022-11-15T06:12:59;95863.44;;;12.30;44.01
10476;BME280;26166;48.264;11.436;2022-11-15T06:15:59;95862.47;;;12.31;44.12
10476;BME280;26166;48.264;11.436;2022-11-15T06:19:00;95867.06;;;12.29;43.90
10476;BME280;26166;48.264;11.436;2022-11-15T06:22:00;95876.00;;;12.28;43.91
10476;BME280;26166;48.264;11.436;2022-11-15T06:25:00;95860.56;;;12.25;43.93
10476;BME280;26166;48.264;11.436;2022-11-15T06:28:00;95869.25;;;12.26;44.19
10476;BME280;26166;48.264;11.436;2022-11-15T06:31:04;95864.84;;;12.26;44.16
10476;BME280;26166;48.264;11.436;2022-11-15T06:34:04;95861.19;;;12.27;44.23
10476;BME280;26166;48.264;11.436;2022-11-15T06:37:05;95861.00;;;12.29;43.76
10476;BME280;26166;48.264;11.436;2022-11-15T06:40:05;95868.28;;;12.27;44.27
10476;BME280;26166;48.264;11.436;2022-11-15T06:43:06;95870.72;;;12.28;44.28
10476;BME280;26166;48.264;11.436;2022-11-15T06:46:07;95870.72;;;12.28;44.08
10476;BME280;26166;48.264;11.436;2022-11-15T06:49:07;95879.84;;;12.11;44.42
10476;BME280;26166;48.264;11.436;2022-11-15T06:52:07;95881.69;;;11.96;44.38
10476;BME280;26166;48.264;11.436;2022-11-15T06:55:08;95885.69;;;11.92;44.83
10476;BME280;26166;48.264;11.436;2022-11-15T06:58:08;95887.94;;;11.95;44.98
10476;BME280;26166;48.264;11.436;2022-11-15T07:01:09;95897.91;;;11.99;44.65
10476;BME280;26166;48.264;11.436;2022-11-15T07:04:09;95899.19;;;12.03;44.76
10476;BME280;26166;48.264;11.436;2022-11-15T07:07:10;95899.28;;;12.10;44.71
10476;BME280;26166;48.264;11.436;2022-11-15T07:10:10;95896.28;;;12.13;44.51
10476;BME280;26166;48.264;11.436;2022-11-15T07:13:10;95889.00;;;12.15;44.71
10476;BME280;26166;48.264;11.436;2022-11-15T07:16:10;95885.38;;;12.16;44.55
10476;BME280;26166;48.264;11.436;2022-11-15T07:19:11;95892.25;;;12.17;44.92
10476;BME280;26166;48.264;11.436;2022-11-15T07:22:11;95901.81;;;12.18;45.17
10476;BME280;26166;48.264;11.436;2022-11-15T07:25:11;95901.41;;;12.21;44.91
10476;BME280;26166;48.264;11.436;2022-11-15T07:28:12;95896.81;;;12.23;44.97
10476;BME280;26166;48.264;11.436;2022-11-15T07:31:12;95896.59;;;12.25;44.90
10476;BME280;26166;48.264;11.436;2022-11-15T07:34:12;95896.59;;;12.25;45.17
10476;BME280;26166;48.264;11.436;2022-11-15T07:37:12;95887.69;;;12.26;44.98
10476;BME280;26166;48.264;11.436;2022-11-15T07:40:13;95881.63;;;12.25;45.29
10476;BME280;26166;48.264;11.436;2022-11-15T07:43:13;95868.28;;;12.27;45.63
10476;BME280;26166;48.264;11.436;2022-11-15T07:46:13;95867.47;;;12.26;45.55
10476;BME280;26166;48.264;11.436;2022-11-15T07:49:13;95869.25;;;12.26;45.84
10476;BME280;26166;48.264;11.436;2022-11-15T07:52:14;95860.56;;;12.25;45.93
10476;BME280;26166;48.264;11.436;2022-11-15T07:55:14;95859.75;;;12.25;45.79
10476;BME280;26166;48.264;11.436;2022-11-15T07:58:14;95853.66;;;12.24;46.01
10476;BME280;26166;48.264;11.436;2022-11-15T08:01:14;95855.28;;;12.25;46.08
10476;BME280;26166;48.264;11.436;2022-11-15T08:04:14;95851.66;;;12.26;46.27
10476;BME280;26166;48.264;11.436;2022-11-15T08:07:15;95846.41;;;12.26;46.52
10476;BME280;26166;48.264;11.436;2022-11-15T08:10:15;95847.22;;;12.27;46.75
10476;BME280;26166;48.264;11.436;2022-11-15T08:13:18;95849.03;;;12.26;47.00
10476;BME280;26166;48.264;11.436;2022-11-15T08:16:19;95854.91;;;12.28;46.96
10476;BME280;26166;48.264;11.436;2022-11-15T08:19:19;95839.13;;;12.28;47.13
10476;BME280;26166;48.264;11.436;2022-11-15T08:22:20;95836.13;;;12.31;47.31
10476;BME280;26166;48.264;11.436;2022-11-15T08:25:20;95829.84;;;12.32;47.33
10476;BME280;26166;48.264;11.436;2022-11-15T08:28:20;95824.56;;;12.32;47.31
10476;BME280;26166;48.264;11.436;2022-11-15T08:31:21;95819.31;;;12.32;47.78
10476;BME280;26166;48.264;11.436;2022-11-15T08:34:21;95829.84;;;12.32;47.65
10476;BME280;26166;48.264;11.436;2022-11-15T08:37:21;95830.66;;;12.33;47.89
10476;BME280;26166;48.264;11.436;2022-11-15T08:40:21;95834.09;;;12.33;48.03
10476;BME280;26166;48.264;11.436;2022-11-15T08:43:22;95839.56;;;12.32;48.11
10476;BME280;26166;48.264;11.436;2022-11-15T08:46:22;95834.75;;;12.35;47.97
10476;BME280;26166;48.264;11.436;2022-11-15T08:49:22;95827.47;;;12.37;48.29
10476;BME280;26166;48.264;11.436;2022-11-15T08:52:22;95815.91;;;12.38;48.13
10476;BME280;26166;48.264;11.436;2022-11-15T08:55:23;95819.34;;;12.39;48.32
10476;BME280;26166;48.264;11.436;2022-11-15T08:58:23;95821.00;;;12.40;48.40
10476;BME280;26166;48.264;11.436;2022-11-15T09:01:23;95811.47;;;12.39;48.72
10476;BME280;26166;48.264;11.436;2022-11-15T09:04:23;95811.47;;;12.39;48.89
10476;BME280;26166;48.264;11.436;2022-11-15T09:07:23;95799.28;;;12.38;48.81
10476;BME280;26166;48.264;11.436;2022-11-15T09:10:24;95799.50;;;12.36;49.12
10476;BME280;26166;48.264;11.436;2022-11-15T09:13:24;95801.31;;;12.36;49.04
10476;BME280;26166;48.264;11.436;2022-11-15T09:16:25;95794.22;;;12.36;49.26
10476;BME280;26166;48.264;11.436;2022-11-15T09:19:25;95783.69;;;12.36;48.98
10476;BME280;26166;48.264;11.436;2022-11-15T09:22:25;95779.25;;;12.37;48.95
10476;BME280;26166;48.264;11.436;2022-11-15T09:25:26;95778.06;;;12.40;48.95
10476;BME280;26166;48.264;11.436;2022-11-15T09:28:27;95777.03;;;12.41;48.96
10476;BME280;26166;48.264;11.436;2022-11-15T09:31:27;95776.03;;;12.42;49.22
10476;BME280;26166;48.264;11.436;2022-11-15T09:34:29;95763.69;;;12.42;49.30
10476;BME280;26166;48.264;11.436;2022-11-15T09:37:31;95763.69;;;12.42;49.31
10476;BME280;26166;48.264;11.436;2022-11-15T09:40:31;95757.59;;;12.42;49.31
10476;BME280;26166;48.264;11.436;2022-11-15T09:43:38;95752.94;;;12.44;49.41
10476;BME280;26166;48.264;11.436;2022-11-15T09:46:45;95755.56;;;12.44;49.21
10476;BME280;26166;48.264;11.436;2022-11-15T09:49:55;95755.41;;;12.45;49.48
10476;BME280;26166;48.264;11.436;2022-11-15T09:52:57;95750.94;;;12.46;49.62
10476;BME280;26166;48.264;11.436;2022-11-15T09:56:02;95741.03;;;12.48;49.24
10476;BME280;26166;48.264;11.436;2022-11-15T09:59:23;95729.50;;;12.49;49.67
10476;BME280;26166;48.264;11.436;2022-11-15T10:05:45;95722.22;;;12.51;49.80
10476;BME280;26166;48.264;11.436;2022-11-15T10:11:55;95721.19;;;12.52;50.07
10476;BME280;26166;48.264;11.436;2022-11-15T10:15:01;95710.66;;;12.52;50.19
10476;BME280;26166;48.264;11.436;2022-11-15T10:18:16;95706.19;;;12.52;50.07
10476;BME280;26166;48.264;11.436;2022-11-15T10:21:21;95702.16;;;12.50;50.65
10476;BME280;26166;48.264;11.436;2022-11-15T10:24:25;95708.22;;;12.50;50.62
10476;BME280;26166;48.264;11.436;2022-11-15T10:27:25;95703.16;;;12.49;51.01
10476;BME280;26166;48.264;11.436;2022-11-15T10:30:30;95702.16;;;12.50;50.67
10476;BME280;26166;48.264;11.436;2022-11-15T10:33:37;95690.78;;;12.49;51.08
10476;BME280;26166;48.264;11.436;2022-11-15T10:36:38;95689.78;;;12.50;50.97
10476;BME280;26166;48.264;11.436;2022-11-15T10:39:38;95685.31;;;12.51;51.08
10476;BME280;26166;48.264;11.436;2022-11-15T10:42:38;95685.13;;;12.52;51.07
10476;BME280;26166;48.264;11.436;2022-11-15T10:45:38;95672.78;;;12.53;51.15
10476;BME280;26166;48.264;11.436;2022-11-15T10:48:39;95665.69;;;12.53;50.92
10476;BME280;26166;48.264;11.436;2022-11-15T10:51:47;95661.03;;;12.55;51.51
10476;BME280;26166;48.264;11.436;2022-11-15T10:57:52;95650.50;;;12.55;51.55
10476;BME280;26166;48.264;11.436;2022-11-15T11:00:52;95639.16;;;12.55;51.70
10476;BME280;26166;48.264;11.436;2022-11-15T11:04:00;95643.22;;;12.57;51.82
10476;BME280;26166;48.264;11.436;2022-11-15T11:07:01;95633.50;;;12.58;51.75
10476;BME280;26166;48.264;11.436;2022-11-15T11:13:14;95626.19;;;12.60;51.86
10476;BME280;26166;48.264;11.436;2022-11-15T11:20:18;95618.31;;;12.60;51.82
10476;BME280;26166;48.264;11.436;2022-11-15T11:26:01;95602.72;;;12.65;51.68
10476;BME280;26166;48.264;11.436;2022-11-15T11:47:47;95574.78;;;12.71;51.20
10476;BME280;26166;48.264;11.436;2022-11-15T11:50:51;95569.31;;;12.72;51.20
10476;BME280;26166;48.264;11.436;2022-11-15T11:53:54;95570.13;;;12.73;51.19
10476;BME280;26166;48.264;11.436;2022-11-15T11:56:57;95562.22;;;12.73;51.53
10476;BME280;26166;48.264;11.436;2022-11-15T12:00:19;95552.50;;;12.73;51.35
10476;BME280;26166;48.264;11.436;2022-11-15T12:03:34;95547.22;;;12.73;51.41
10476;BME280;26166;48.264;11.436;2022-11-15T12:06:41;95553.31;;;12.74;51.70
10476;BME280;26166;48.264;11.436;2022-11-15T12:09:51;95548.03;;;12.74;51.85
10476;BME280;26166;48.264;11.436;2022-11-15T12:13:07;95545.22;;;12.75;51.69
10476;BME280;26166;48.264;11.436;2022-11-15T12:16:11;95542.38;;;12.77;51.55
10476;BME280;26166;48.264;11.436;2022-11-15T12:19:13;95550.06;;;12.78;51.59
10476;BME280;26166;48.264;11.436;2022-11-15T12:25:45;95536.91;;;12.78;51.88
10476;BME280;26166;48.264;11.436;2022-11-15T12:28:55;95533.28;;;12.79;51.76
10476;BME280;26166;48.264;11.436;2022-11-15T12:32:00;95541.19;;;12.79;52.08
10476;BME280;26166;48.264;11.436;2022-11-15T12:35:03;95533.06;;;12.81;51.90
10476;BME280;26166;48.264;11.436;2022-11-15T12:38:04;95526.97;;;12.80;51.72
10476;BME280;26166;48.264;11.436;2022-11-15T12:41:14;95521.28;;;12.83;51.77
10476;BME280;26166;48.264;11.436;2022-11-15T12:47:30;95521.28;;;12.83;52.09
10476;BME280;26166;48.264;11.436;2022-11-15T12:51:12;95516.03;;;12.83;52.11
10476;BME280;26166;48.264;11.436;2022-11-15T12:53:53;95517.69;;;12.84;52.14
10476;BME280;26166;48.264;11.436;2022-11-15T13:03:22;95517.69;;;12.84;52.84
10476;BME280;26166;48.264;11.436;2022-11-15T13:06:34;95512.19;;;12.86;52.70
10476;BME280;26166;48.264;11.436;2022-11-15T13:15:53;95505.09;;;12.86;52.76
10476;BME280;26166;48.264;11.436;2022-11-15T13:18:56;95504.06;;;12.87;53.41
10476;BME280;26166;48.264;11.436;2022-11-15T13:21:58;95505.94;;;12.94;53.03
10476;BME280;26166;48.264;11.436;2022-11-15T13:28:41;95506.34;;;13.04;52.33
10476;BME280;26166;48.264;11.436;2022-11-15T13:31:43;95511.25;;;13.07;52.47
10476;BME280;26166;48.264;11.436;2022-11-15T13:34:47;95512.84;;;13.08;52.77
10476;BME280;26166;48.264;11.436;2022-11-15T13:37:48;95512.66;;;13.09;52.31
10476;BME280;26166;48.264;11.436;2022-11-15T13:40:48;95504.56;;;13.11;52.43
10476;BME280;26166;48.264;11.436;2022-11-15T13:43:49;95501.91;;;13.11;52.81
10476;BME280;26166;48.264;11.436;2022-11-15T13:47:00;95510.63;;;13.11;52.56
10476;BME280;26166;48.264;11.436;2022-11-15T13:50:01;95506.16;;;13.12;52.85
10476;BME280;26166;48.264;11.436;2022-11-15T13:53:03;95492.19;;;13.11;53.44
10476;BME280;26166;48.264;11.436;2022-11-15T13:56:04;95488.72;;;13.11;53.81
10476;BME280;26166;48.264;11.436;2022-11-15T13:59:10;95492.97;;;13.12;53.61
10476;BME280;26166;48.264;11.436;2022-11-15T14:02:11;95492.97;;;13.12;53.67
10476;BME280;26166;48.264;11.436;2022-11-15T14:05:16;95493.78;;;13.12;53.43
10476;BME280;26166;48.264;11.436;2022-11-15T14:11:19;95501.91;;;13.11;53.67
10476;BME280;26166;48.264;11.436;2022-11-15T14:14:20;95505.97;;;13.07;53.88
10476;BME280;26166;48.264;11.436;2022-11-15T14:17:42;95505.34;;;13.05;53.89
10476;BME280;26166;48.264;11.436;2022-11-15T14:20:42;95497.00;;;13.01;54.61
10476;BME280;26166;48.264;11.436;2022-11-15T14:23:42;95501.47;;;13.01;54.31
10476;BME280;26166;48.264;11.436;2022-11-15T14:26:43;95502.69;;;12.98;54.41
10476;BME280;26166;48.264;11.436;2022-11-15T14:29:43;95503.50;;;12.99;54.26
10476;BME280;26166;48.264;11.436;2022-11-15T14:32:45;95501.88;;;12.98;54.37
10476;BME280;26166;48.264;11.436;2022-11-15T14:35:46;95496.63;;;12.98;54.47
10476;BME280;26166;48.264;11.436;2022-11-15T14:38:47;95506.53;;;12.96;54.46
10476;BME280;26166;48.264;11.436;2022-11-15T14:41:47;95508.78;;;12.99;54.34
10476;BME280;26166;48.264;11.436;2022-11-15T14:44:47;95507.56;;;13.01;54.21
10476;BME280;26166;48.264;11.436;2022-11-15T14:47:48;95501.09;;;13.04;54.19
10476;BME280;26166;48.264;11.436;2022-11-15T14:50:48;95504.34;;;13.06;54.43
10476;BME280;26166;48.264;11.436;2022-11-15T14:53:48;95503.91;;;13.09;54.10
10476;BME280;26166;48.264;11.436;2022-11-15T14:56:49;95495.00;;;13.10;54.24
10476;BME280;26166;48.264;11.436;2022-11-15T14:59:49;95498.25;;;13.12;54.52
10476;BME280;26166;48.264;11.436;2022-11-15T15:02:50;95486.91;;;13.11;54.43
10476;BME280;26166;48.264;11.436;2022-11-15T15:05:51;95492.97;;;13.12;54.64
10476;BME280;26166;48.264;11.436;2022-11-15T15:08:51;95488.53;;;13.12;54.61
10476;BME280;26166;48.264;11.436;2022-11-15T15:11:51;95487.72;;;13.12;54.86
10476;BME280;26166;48.264;11.436;2022-11-15T15:14:54;95485.06;;;13.12;54.83
10476;BME280;26166;48.264;11.436;2022-11-15T15:17:54;95484.06;;;13.13;54.71
10476;BME280;26166;48.264;11.436;2022-11-15T15:20:58;95483.03;;;13.14;54.78
10476;BME280;26166;48.264;11.436;2022-11-15T15:24:08;95484.06;;;13.13;54.78
10476;BME280;26166;48.264;11.436;2022-11-15T15:27:13;95484.88;;;13.13;54.73
10476;BME280;26166;48.264;11.436;2022-11-15T15:30:13;95483.03;;;13.14;54.85
10476;BME280;26166;48.264;11.436;2022-11-15T15:33:13;95485.66;;;13.14;54.87
10476;BME280;26166;48.264;11.436;2022-11-15T15:36:14;95488.31;;;13.14;55.02
10476;BME280;26166;48.264;11.436;2022-11-15T15:39:16;95484.88;;;13.13;54.88
10476;BME280;26166;48.264;11.436;2022-11-15T15:42:17;95473.28;;;13.14;55.02
10476;BME280;26166;48.264;11.436;2022-11-15T15:45:17;95475.13;;;13.14;55.08
10476;BME280;26166;48.264;11.436;2022-11-15T15:48:18;95473.13;;;13.16;55.11
10476;BME280;26166;48.264;11.436;2022-11-15T15:51:18;95475.94;;;13.14;55.14
10476;BME280;26166;48.264;11.436;2022-11-15T15:54:18;95467.44;;;13.12;55.16
10476;BME280;26166;48.264;11.436;2022-11-15T15:57:18;95468.63;;;13.10;55.20
10476;BME280;26166;48.264;11.436;2022-11-15T16:00:19;95461.34;;;13.12;55.33
10476;BME280;26166;48.264;11.436;2022-11-15T16:03:20;95458.72;;;13.12;55.36
10476;BME280;26166;48.264;11.436;2022-11-15T16:06:34;95457.09;;;13.11;55.44
10476;BME280;26166;48.264;11.436;2022-11-15T16:09:39;95451.59;;;13.12;55.50
10476;BME280;26166;48.264;11.436;2022-11-15T16:12:58;95438.63;;;13.11;55.42
10476;BME280;26166;48.264;11.436;2022-11-15T16:15:58;95449.19;;;13.11;55.30
10476;BME280;26166;48.264;11.436;2022-11-15T16:18:58;95442.47;;;13.08;55.29
10476;BME280;26166;48.264;11.436;2022-11-15T16:22:00;95434.78;;;13.07;55.41
10476;BME280;26166;48.264;11.436;2022-11-15T16:25:01;95428.47;;;13.08;55.30
10476;BME280;26166;48.264;11.436;2022-11-15T16:28:01;95417.13;;;13.07;55.55
10476;BME280;26166;48.264;11.436;2022-11-15T16:31:09;95418.75;;;13.08;55.48
10476;BME280;26166;48.264;11.436;2022-11-15T16:34:09;95419.56;;;13.09;55.47
10476;BME280;26166;48.264;11.436;2022-11-15T16:37:28;95425.03;;;13.07;55.31
10476;BME280;26166;48.264;11.436;2022-11-15T16:40:29;95421.78;;;13.05;55.69
10476;BME280;26166;48.264;11.436;2022-11-15T16:43:30;95419.97;;;13.06;55.48
10476;BME280;26166;48.264;11.436;2022-11-15T16:46:36;95409.44;;;13.06;55.51
10476;BME280;26166;48.264;11.436;2022-11-15T16:49:37;95404.16;;;13.06;55.60
10476;BME280;26166;48.264;11.436;2022-11-15T16:52:42;95409.22;;;13.07;55.47
10476;BME280;26166;48.264;11.436;2022-11-15T16:55:43;95403.13;;;13.07;55.86
10476;BME280;26166;48.264;11.436;2022-11-15T16:58:43;95405.78;;;13.07;56.10
10476;BME280;26166;48.264;11.436;2022-11-15T17:01:43;95406.38;;;13.09;55.89
10476;BME280;26166;48.264;11.436;2022-11-15T17:04:49;95407.00;;;13.11;55.74
10476;BME280;26166;48.264;11.436;2022-11-15T17:07:50;95404.94;;;13.13;55.81
10476;BME280;26166;48.264;11.436;2022-11-15T17:10:53;95409.22;;;13.14;55.88
10476;BME280;26166;48.264;11.436;2022-11-15T17:13:56;95402.72;;;13.17;55.80
10476;BME280;26166;48.264;11.436;2022-11-15T17:16:56;95390.34;;;13.17;55.76
10476;BME280;26166;48.264;11.436;2022-11-15T17:19:57;95387.50;;;13.19;55.71
10476;BME280;26166;48.264;11.436;2022-11-15T17:23:00;95385.50;;;13.21;55.59
10476;BME280;26166;48.264;11.436;2022-11-15T17:26:01;95391.56;;;13.21;55.56
10476;BME280;26166;48.264;11.436;2022-11-15T17:29:03;95384.28;;;13.23;55.38